sensor_id;sensor_type;location;lat;lon;timestamp;pressure;altitude;pressure_sealevel;temperature;humidity
39613;BME280;25303;48.896;13.342;2023-06-04T00:01:13;92939.84;;;13.44;37.95
39613;BME280;25303;48.896;13.342;2023-06-04T00:03:57;92936.81;;;13.41;37.92
39613;BME280;25303;48.896;13.342;2023-06-04T00:06:40;92936.97;;;13.39;37.96
39613;BME280;25303;48.896;13.342;2023-06-04T00:09:23;92929.53;;;13.36;38.18
39613;BME280;25303;48.896;13.342;2023-06-04T00:12:08;92922.31;;;13.31;38.30
39613;BME280;25303;48.896;13.342;2023-06-04T00:14:51;92924.91;;;13.31;38.27
39613;BME280;25303;48.896;13.342;2023-06-04T00:17:34;92921.50;;;13.31;38.35
39613;BME280;25303;48.896;13.342;2023-06-04T00:20:17;92920.31;;;13.33;38.30
39613;BME280;25303;48.896;13.342;2023-06-04T00:23:00;92915.16;;;13.33;38.34
39613;BME280;25303;48.896;13.342;2023-06-04T00:25:43;92920.31;;;13.33;38.47
39613;BME280;25303;48.896;13.342;2023-06-04T00:28:27;92925.69;;;13.32;38.60
39613;BME280;25303;48.896;13.342;2023-06-04T00:31:10;92921.50;;;13.31;38.54
39613;BME280;25303;48.896;13.342;2023-06-04T00:33:54;92912.13;;;13.30;38.44
39613;BME280;25303;48.896;13.342;2023-06-04T00:36:37;92910.25;;;13.24;38.50
39613;BME280;25303;48.896;13.342;2023-06-04T00:39:20;92906.03;;;13.22;38.72
39613;BME280;25303;48.896;13.342;2023-06-04T00:42:03;92908.63;;;13.22;38.56
39613;BME280;25303;48.896;13.342;2023-06-04T00:44:47;92904.44;;;13.21;38.53
39613;BME280;25303;48.896;13.342;2023-06-04T00:47:30;92902.97;;;13.19;38.79
39613;BME280;25303;48.896;13.342;2023-06-04T00:50:13;92897.16;;;13.17;38.93
39613;BME280;25303;48.896;13.342;2023-06-04T00:52:56;92895.41;;;13.17;38.90
39613;BME280;25303;48.896;13.342;2023-06-04T00:55:39;92895.56;;;13.16;38.76
39613;BME280;25303;48.896;13.342;2023-06-04T00:58:22;92896.72;;;13.13;38.89
39613;BME280;25303;48.896;13.342;2023-06-04T01:01:12;92902.06;;;13.12;39.02
39613;BME280;25303;48.896;13.342;2023-06-04T01:04:00;92895.09;;;13.12;38.99
39613;BME280;25303;48.896;13.342;2023-06-04T01:06:44;92883.16;;;13.11;39.08
39613;BME280;25303;48.896;13.342;2023-06-04T01:09:29;92897.03;;;13.10;38.97
39613;BME280;25303;48.896;13.342;2023-06-04T01:12:13;92897.88;;;13.11;38.87
39613;BME280;25303;48.896;13.342;2023-06-04T01:14:56;92886.88;;;13.09;38.90
39613;BME280;25303;48.896;13.342;2023-06-04T01:17:41;92893.03;;;13.07;38.89
39613;BME280;25303;48.896;13.342;2023-06-04T01:20:31;92884.97;;;13.02;38.88
39613;BME280;25303;48.896;13.342;2023-06-04T01:23:26;92881.16;;;12.98;38.96
39613;BME280;25303;48.896;13.342;2023-06-04T01:26:15;92887.16;;;12.90;39.01
39613;BME280;25303;48.896;13.342;2023-06-04T01:28:59;92881.06;;;12.83;39.05
39613;BME280;25303;48.896;13.342;2023-06-04T01:31:43;92878.16;;;12.78;39.13
39613;BME280;25303;48.896;13.342;2023-06-04T01:34:28;92881.25;;;12.73;39.43
39613;BME280;25303;48.896;13.342;2023-06-04T01:37:11;92884.19;;;12.70;39.80
39613;BME280;25303;48.896;13.342;2023-06-04T01:39:55;92888.06;;;12.66;39.78
39613;BME280;25303;48.896;13.342;2023-06-04T01:42:38;92888.41;;;12.63;39.95
39613;BME280;25303;48.896;13.342;2023-06-04T01:45:21;92887.13;;;12.59;40.19
39613;BME280;25303;48.896;13.342;2023-06-04T01:48:05;92885.72;;;12.56;40.28
39613;BME280;25303;48.896;13.342;2023-06-04T01:50:50;92888.28;;;12.56;40.31
39613;BME280;25303;48.896;13.342;2023-06-04T01:53:33;92890.88;;;12.56;40.23
39613;BME280;25303;48.896;13.342;2023-06-04T01:56:16;92888.78;;;12.52;40.44
39613;BME280;25303;48.896;13.342;2023-06-04T01:58:59;92893.13;;;12.51;40.38
39613;BME280;25303;48.896;13.342;2023-06-04T02:01:42;92892.31;;;12.51;40.43
39613;BME280;25303;48.896;13.342;2023-06-04T02:04:25;92896.56;;;12.43;40.70
39613;BME280;25303;48.896;13.342;2023-06-04T02:07:10;92900.75;;;12.36;40.98
39613;BME280;25303;48.896;13.342;2023-06-04T02:09:55;92898.88;;;12.30;41.14
39613;BME280;25303;48.896;13.342;2023-06-04T02:12:40;92903.53;;;12.26;40.94
39613;BME280;25303;48.896;13.342;2023-06-04T02:15:24;92905.13;;;12.27;41.02
39613;BME280;25303;48.896;13.342;2023-06-04T02:18:14;92906.13;;;12.26;41.13
39613;BME280;25303;48.896;13.342;2023-06-04T02:20:59;92911.91;;;12.28;41.01
39613;BME280;25303;48.896;13.342;2023-06-04T02:23:43;92906.44;;;12.31;40.95
39613;BME280;25303;48.896;13.342;2023-06-04T02:26:26;92915.59;;;12.34;41.04
39613;BME280;25303;48.896;13.342;2023-06-04T02:29:09;92918.84;;;12.36;41.03
39613;BME280;25303;48.896;13.342;2023-06-04T02:31:52;92918.69;;;12.38;41.15
39613;BME280;25303;48.896;13.342;2023-06-04T02:34:35;92920.44;;;12.37;40.96
39613;BME280;25303;48.896;13.342;2023-06-04T02:37:18;92920.63;;;12.36;41.04
39613;BME280;25303;48.896;13.342;2023-06-04T02:40:03;92918.38;;;12.33;41.00
39613;BME280;25303;48.896;13.342;2023-06-04T02:42:46;92920.63;;;12.27;41.29
39613;BME280;25303;48.896;13.342;2023-06-04T02:45:29;92928.88;;;12.23;41.02
39613;BME280;25303;48.896;13.342;2023-06-04T02:48:12;92931.78;;;12.20;40.92
39613;BME280;25303;48.896;13.342;2023-06-04T02:50:55;92921.63;;;12.18;41.10
39613;BME280;25303;48.896;13.342;2023-06-04T02:53:38;92919.56;;;12.13;41.23
39613;BME280;25303;48.896;13.342;2023-06-04T02:56:22;92917.75;;;12.14;41.21
39613;BME280;25303;48.896;13.342;2023-06-04T02:59:05;92915.34;;;12.12;41.25
39613;BME280;25303;48.896;13.342;2023-06-04T03:01:54;92923.75;;;12.06;41.50
39613;BME280;25303;48.896;13.342;2023-06-04T03:04:37;92915.69;;;12.01;41.53
39613;BME280;25303;48.896;13.342;2023-06-04T03:07:20;92922.91;;;11.97;41.63
39613;BME280;25303;48.896;13.342;2023-06-04T03:10:05;92917.75;;;11.97;41.41
39613;BME280;25303;48.896;13.342;2023-06-04T03:12:50;92926.31;;;11.98;41.57
39613;BME280;25303;48.896;13.342;2023-06-04T03:15:33;92923.41;;;12.01;41.46
39613;BME280;25303;48.896;13.342;2023-06-04T03:18:16;92930.19;;;12.02;41.58
39613;BME280;25303;48.896;13.342;2023-06-04T03:20:59;92930.69;;;12.06;41.53
39613;BME280;25303;48.896;13.342;2023-06-04T03:23:43;92929.72;;;12.07;41.56
39613;BME280;25303;48.896;13.342;2023-06-04T03:26:26;92932.91;;;12.09;41.29
39613;BME280;25303;48.896;13.342;2023-06-04T03:29:11;92935.34;;;12.10;41.43
39613;BME280;25303;48.896;13.342;2023-06-04T03:31:55;92930.97;;;12.11;41.53
39613;BME280;25303;48.896;13.342;2023-06-04T03:34:38;92934.06;;;12.14;41.58
39613;BME280;25303;48.896;13.342;2023-06-04T03:37:22;92937.63;;;12.13;41.44
39613;BME280;25303;48.896;13.342;2023-06-04T03:40:07;92937.63;;;12.13;41.57
39613;BME280;25303;48.896;13.342;2023-06-04T03:42:53;92935.69;;;12.07;41.46
39613;BME280;25303;48.896;13.342;2023-06-04T03:45:42;92944.06;;;12.01;41.43
39613;BME280;25303;48.896;13.342;2023-06-04T03:48:26;92946.16;;;11.89;41.66
39613;BME280;25303;48.896;13.342;2023-06-04T03:51:11;92941.94;;;11.80;41.96
39613;BME280;25303;48.896;13.342;2023-06-04T03:53:55;92951.16;;;11.74;42.08
39613;BME280;25303;48.896;13.342;2023-06-04T03:56:38;92948.41;;;11.67;42.28
39613;BME280;25303;48.896;13.342;2023-06-04T03:59:24;92951.63;;;11.61;42.68
39613;BME280;25303;48.896;13.342;2023-06-04T04:02:09;92943.72;;;11.54;42.75
39613;BME280;25303;48.896;13.342;2023-06-04T04:04:54;92949.03;;;11.53;42.93
39613;BME280;25303;48.896;13.342;2023-06-04T04:07:38;92953.38;;;11.52;44.44
39613;BME280;25303;48.896;13.342;2023-06-04T04:10:21;92956.47;;;11.56;43.35
39613;BME280;25303;48.896;13.342;2023-06-04T04:13:05;92955.66;;;11.64;43.39
39613;BME280;25303;48.896;13.342;2023-06-04T04:15:52;92948.09;;;11.70;43.24
39613;BME280;25303;48.896;13.342;2023-06-04T04:18:37;92948.06;;;11.79;43.15
39613;BME280;25303;48.896;13.342;2023-06-04T04:21:20;92949.84;;;11.86;42.97
39613;BME280;25303;48.896;13.342;2023-06-04T04:24:04;92959.34;;;11.94;42.92
39613;BME280;25303;48.896;13.342;2023-06-04T04:26:49;92956.00;;;12.02;42.62
39613;BME280;25303;48.896;13.342;2023-06-04T04:29:35;92960.50;;;12.08;42.45
39613;BME280;25303;48.896;13.342;2023-06-04T04:32:19;92954.72;;;12.14;42.79
39613;BME280;25303;48.896;13.342;2023-06-04T04:35:06;92963.56;;;12.20;42.92
39613;BME280;25303;48.896;13.342;2023-06-04T04:37:52;92960.50;;;12.25;42.90
39613;BME280;25303;48.896;13.342;2023-06-04T04:40:36;92963.41;;;12.30;43.31
39613;BME280;25303;48.896;13.342;2023-06-04T04:43:29;92963.69;;;12.35;43.34
39613;BME280;25303;48.896;13.342;2023-06-04T04:46:13;92962.56;;;12.38;43.17
39613;BME280;25303;48.896;13.342;2023-06-04T04:48:57;92962.41;;;12.39;43.19
39613;BME280;25303;48.896;13.342;2023-06-04T04:51:42;92975.78;;;12.43;43.46
39613;BME280;25303;48.896;13.342;2023-06-04T04:54:25;92973.03;;;12.44;43.37
39613;BME280;25303;48.896;13.342;2023-06-04T04:57:08;92976.28;;;12.46;43.33
39613;BME280;25303;48.896;13.342;2023-06-04T04:59:57;92973.97;;;12.52;43.59
39613;BME280;25303;48.896;13.342;2023-06-04T05:02:40;92967.84;;;12.53;43.69
39613;BME280;25303;48.896;13.342;2023-06-04T05:05:24;92958.34;;;12.53;43.63
39613;BME280;25303;48.896;13.342;2023-06-04T05:08:09;92973.34;;;12.58;43.56
39613;BME280;25303;48.896;13.342;2023-06-04T05:10:55;92964.44;;;12.60;43.68
39613;BME280;25303;48.896;13.342;2023-06-04T05:13:38;92974.44;;;12.64;43.26
39613;BME280;25303;48.896;13.342;2023-06-04T05:16:24;92977.66;;;12.66;43.04
39613;BME280;25303;48.896;13.342;2023-06-04T05:19:10;92974.75;;;12.69;43.03
39613;BME280;25303;48.896;13.342;2023-06-04T05:21:55;92981.50;;;12.78;43.26
39613;BME280;25303;48.896;13.342;2023-06-04T05:24:39;92988.59;;;12.84;42.76
39613;BME280;25303;48.896;13.342;2023-06-04T05:27:22;92995.19;;;12.87;42.67
39613;BME280;25303;48.896;13.342;2023-06-04T05:30:06;92986.47;;;12.88;42.69
39613;BME280;25303;48.896;13.342;2023-06-04T05:32:50;92994.69;;;12.91;42.40
39613;BME280;25303;48.896;13.342;2023-06-04T05:35:38;92992.75;;;12.94;42.21
39613;BME280;25303;48.896;13.342;2023-06-04T05:38:23;92989.19;;;12.95;42.23
39613;BME280;25303;48.896;13.342;2023-06-04T05:41:11;92994.84;;;12.98;42.22
39613;BME280;25303;48.896;13.342;2023-06-04T05:43:55;92995.47;;;13.00;42.19
39613;BME280;25303;48.896;13.342;2023-06-04T05:46:38;92991.75;;;13.03;42.26
39613;BME280;25303;48.896;13.342;2023-06-04T05:49:23;92992.22;;;13.06;42.42
39613;BME280;25303;48.896;13.342;2023-06-04T05:52:08;92996.88;;;13.11;42.46
39613;BME280;25303;48.896;13.342;2023-06-04T05:54:52;93006.69;;;13.16;42.53
39613;BME280;25303;48.896;13.342;2023-06-04T05:57:36;93005.25;;;13.21;42.63
39613;BME280;25303;48.896;13.342;2023-06-04T06:00:19;93009.91;;;13.26;42.54
39613;BME280;25303;48.896;13.342;2023-06-04T06:03:05;93005.84;;;13.32;42.67
39613;BME280;25303;48.896;13.342;2023-06-04T06:05:55;93013.59;;;13.40;42.67
39613;BME280;25303;48.896;13.342;2023-06-04T06:08:40;93017.28;;;13.46;42.62
39613;BME280;25303;48.896;13.342;2023-06-04T06:11:22;93021.94;;;13.50;42.77
39613;BME280;25303;48.896;13.342;2023-06-04T06:14:07;93019.66;;;13.56;42.39
39613;BME280;25303;48.896;13.342;2023-06-04T06:16:50;93017.19;;;13.62;42.21
39613;BME280;25303;48.896;13.342;2023-06-04T06:19:35;93015.84;;;13.66;42.26
39613;BME280;25303;48.896;13.342;2023-06-04T06:22:18;93019.56;;;13.72;42.42
39613;BME280;25303;48.896;13.342;2023-06-04T06:25:02;93019.50;;;13.80;42.62
39613;BME280;25303;48.896;13.342;2023-06-04T06:27:50;93018.63;;;13.88;42.69
39613;BME280;25303;48.896;13.342;2023-06-04T06:30:37;93021.16;;;13.96;42.46
39613;BME280;25303;48.896;13.342;2023-06-04T06:33:20;93025.09;;;14.07;42.20
39613;BME280;25303;48.896;13.342;2023-06-04T06:36:05;93031.31;;;14.21;42.45
39613;BME280;25303;48.896;13.342;2023-06-04T06:38:48;93035.91;;;14.34;42.12
39613;BME280;25303;48.896;13.342;2023-06-04T06:41:32;93037.09;;;14.47;41.88
39613;BME280;25303;48.896;13.342;2023-06-04T06:44:16;93040.44;;;14.55;41.58
39613;BME280;25303;48.896;13.342;2023-06-04T06:47:00;93035.63;;;14.67;41.73
39613;BME280;25303;48.896;13.342;2023-06-04T06:49:43;93030.22;;;14.77;41.47
39613;BME280;25303;48.896;13.342;2023-06-04T06:52:26;93031.38;;;14.89;41.12
39613;BME280;25303;48.896;13.342;2023-06-04T06:55:10;93030.13;;;15.00;40.67
39613;BME280;25303;48.896;13.342;2023-06-04T06:57:53;93030.09;;;15.15;40.38
39613;BME280;25303;48.896;13.342;2023-06-04T07:00:38;93023.22;;;15.23;39.17
39613;BME280;25303;48.896;13.342;2023-06-04T07:03:22;93022.84;;;15.41;39.23
39613;BME280;25303;48.896;13.342;2023-06-04T07:06:05;93032.22;;;15.57;38.82
39613;BME280;25303;48.896;13.342;2023-06-04T07:08:49;93026.53;;;15.68;38.85
39613;BME280;25303;48.896;13.342;2023-06-04T07:11:34;93027.59;;;15.74;38.44
39613;BME280;25303;48.896;13.342;2023-06-04T07:14:17;93028.06;;;15.77;37.58
39613;BME280;25303;48.896;13.342;2023-06-04T07:17:00;93030.72;;;15.84;37.98
39613;BME280;25303;48.896;13.342;2023-06-04T07:19:46;93030.66;;;15.99;38.03
39613;BME280;25303;48.896;13.342;2023-06-04T07:22:28;93033.78;;;16.09;38.02
39613;BME280;25303;48.896;13.342;2023-06-04T07:25:11;93028.28;;;16.19;37.75
39613;BME280;25303;48.896;13.342;2023-06-04T07:27:54;93036.91;;;16.27;37.55
39613;BME280;25303;48.896;13.342;2023-06-04T07:30:39;93032.75;;;16.32;37.19
39613;BME280;25303;48.896;13.342;2023-06-04T07:33:22;93032.03;;;16.38;37.02
39613;BME280;25303;48.896;13.342;2023-06-04T07:36:10;93035.09;;;16.49;37.56
39613;BME280;25303;48.896;13.342;2023-06-04T07:38:53;93035.75;;;16.58;37.08
39613;BME280;25303;48.896;13.342;2023-06-04T07:41:36;93027.03;;;16.65;36.20
39613;BME280;25303;48.896;13.342;2023-06-04T07:44:20;93027.06;;;16.72;35.69
39613;BME280;25303;48.896;13.342;2023-06-04T07:47:06;93036.59;;;16.86;36.14
39613;BME280;25303;48.896;13.342;2023-06-04T07:49:49;93018.66;;;16.98;36.21
39613;BME280;25303;48.896;13.342;2023-06-04T07:52:45;93022.75;;;17.14;36.16
39613;BME280;25303;48.896;13.342;2023-06-04T07:55:28;93017.41;;;17.29;36.21
39613;BME280;25303;48.896;13.342;2023-06-04T07:58:11;93014.88;;;17.43;35.46
39613;BME280;25303;48.896;13.342;2023-06-04T08:00:54;93018.13;;;17.58;35.06
39613;BME280;25303;48.896;13.342;2023-06-04T08:03:37;93011.97;;;17.73;35.24
39613;BME280;25303;48.896;13.342;2023-06-04T08:06:20;93010.59;;;17.84;35.28
39613;BME280;25303;48.896;13.342;2023-06-04T08:09:07;93017.88;;;18.02;35.07
39613;BME280;25303;48.896;13.342;2023-06-04T08:11:51;93017.50;;;18.18;34.45
39613;BME280;25303;48.896;13.342;2023-06-04T08:14:34;93014.88;;;18.18;34.17
39613;BME280;25303;48.896;13.342;2023-06-04T08:17:17;93013.66;;;18.21;34.42
39613;BME280;25303;48.896;13.342;2023-06-04T08:20:00;93017.31;;;18.33;34.15
39613;BME280;25303;48.896;13.342;2023-06-04T08:22:43;93019.53;;;18.36;33.75
39613;BME280;25303;48.896;13.342;2023-06-04T08:25:27;93020.31;;;18.44;33.62
39613;BME280;25303;48.896;13.342;2023-06-04T08:28:13;93013.47;;;18.49;33.56
39613;BME280;25303;48.896;13.342;2023-06-04T08:30:57;93025.13;;;18.60;33.81
39613;BME280;25303;48.896;13.342;2023-06-04T08:33:39;93019.28;;;18.72;33.50
39613;BME280;25303;48.896;13.342;2023-06-04T08:36:23;93030.50;;;18.86;33.83
39613;BME280;25303;48.896;13.342;2023-06-04T08:39:06;93017.88;;;18.96;33.36
39613;BME280;25303;48.896;13.342;2023-06-04T08:41:52;93024.09;;;19.02;32.52
39613;BME280;25303;48.896;13.342;2023-06-04T08:44:35;93027.09;;;19.05;31.78
39613;BME280;25303;48.896;13.342;2023-06-04T08:47:20;93030.09;;;19.09;32.34
39613;BME280;25303;48.896;13.342;2023-06-04T08:50:08;93031.47;;;19.25;32.36
39613;BME280;25303;48.896;13.342;2023-06-04T08:52:53;93028.41;;;19.41;32.14
39613;BME280;25303;48.896;13.342;2023-06-04T08:55:37;93025.94;;;19.53;31.66
39613;BME280;25303;48.896;13.342;2023-06-04T08:58:23;93031.50;;;19.70;32.43
39613;BME280;25303;48.896;13.342;2023-06-04T09:01:07;93034.25;;;19.89;32.30
39613;BME280;25303;48.896;13.342;2023-06-04T09:03:51;93034.94;;;20.10;31.80
39613;BME280;25303;48.896;13.342;2023-06-04T09:06:35;93040.13;;;20.16;31.19
39613;BME280;25303;48.896;13.342;2023-06-04T09:09:19;93032.44;;;20.22;31.39
39613;BME280;25303;48.896;13.342;2023-06-04T09:12:03;93037.81;;;20.33;31.27
39613;BME280;25303;48.896;13.342;2023-06-04T09:14:50;93041.28;;;20.53;31.00
39613;BME280;25303;48.896;13.342;2023-06-04T09:17:33;93043.00;;;20.65;31.20
39613;BME280;25303;48.896;13.342;2023-06-04T09:20:19;93051.28;;;20.88;30.64
39613;BME280;25303;48.896;13.342;2023-06-04T09:23:12;93045.66;;;21.09;30.42
39613;BME280;25303;48.896;13.342;2023-06-04T09:25:55;93042.31;;;21.39;30.93
39613;BME280;25303;48.896;13.342;2023-06-04T09:28:40;93039.44;;;21.66;30.04
39613;BME280;25303;48.896;13.342;2023-06-04T09:31:25;93040.84;;;21.99;30.27
39613;BME280;25303;48.896;13.342;2023-06-04T09:34:10;93038.63;;;22.27;29.56
39613;BME280;25303;48.896;13.342;2023-06-04T09:36:53;93042.38;;;22.50;29.12
39613;BME280;25303;48.896;13.342;2023-06-04T09:39:36;93033.88;;;22.78;29.11
39613;BME280;25303;48.896;13.342;2023-06-04T09:42:19;93035.25;;;23.04;28.43
39613;BME280;25303;48.896;13.342;2023-06-04T09:45:03;93028.88;;;23.24;28.57
39613;BME280;25303;48.896;13.342;2023-06-04T09:47:48;93030.09;;;23.33;27.83
39613;BME280;25303;48.896;13.342;2023-06-04T09:50:32;93031.31;;;23.43;27.48
39613;BME280;25303;48.896;13.342;2023-06-04T09:53:15;93027.75;;;23.61;26.16
39613;BME280;25303;48.896;13.342;2023-06-04T09:55:59;93020.94;;;23.89;27.48
39613;BME280;25303;48.896;13.342;2023-06-04T09:58:43;93020.63;;;24.14;27.11
39613;BME280;25303;48.896;13.342;2023-06-04T10:01:29;93026.47;;;24.33;26.46
39613;BME280;25303;48.896;13.342;2023-06-04T10:04:14;93017.25;;;24.48;25.68
39613;BME280;25303;48.896;13.342;2023-06-04T10:06:58;93021.22;;;24.67;25.86
39613;BME280;25303;48.896;13.342;2023-06-04T10:09:43;93024.53;;;24.75;26.37
39613;BME280;25303;48.896;13.342;2023-06-04T10:12:31;93028.25;;;25.13;25.91
39613;BME280;25303;48.896;13.342;2023-06-04T10:15:19;93025.50;;;25.42;25.84
39613;BME280;25303;48.896;13.342;2023-06-04T10:18:02;93028.25;;;25.74;25.97
39613;BME280;25303;48.896;13.342;2023-06-04T10:20:48;93030.50;;;26.10;25.69
39613;BME280;25303;48.896;13.342;2023-06-04T10:23:31;93028.94;;;26.36;25.23
39613;BME280;25303;48.896;13.342;2023-06-04T10:26:14;93030.66;;;26.53;25.03
39613;BME280;25303;48.896;13.342;2023-06-04T10:28:57;93033.38;;;26.63;23.91
39613;BME280;25303;48.896;13.342;2023-06-04T10:31:42;93030.19;;;26.61;23.50
39613;BME280;25303;48.896;13.342;2023-06-04T10:34:27;93031.16;;;26.50;23.70
39613;BME280;25303;48.896;13.342;2023-06-04T10:37:19;93030.44;;;26.87;23.07
39613;BME280;25303;48.896;13.342;2023-06-04T10:40:04;93025.25;;;27.03;23.49
39613;BME280;25303;48.896;13.342;2023-06-04T10:42:47;93018.69;;;27.10;23.19
39613;BME280;25303;48.896;13.342;2023-06-04T10:45:30;93013.41;;;27.15;23.29
39613;BME280;25303;48.896;13.342;2023-06-04T10:48:13;93021.50;;;27.41;22.74
39613;BME280;25303;48.896;13.342;2023-06-04T10:50:56;93024.75;;;27.54;22.62
39613;BME280;25303;48.896;13.342;2023-06-04T10:53:40;93025.41;;;27.28;21.63
39613;BME280;25303;48.896;13.342;2023-06-04T10:56:26;93021.94;;;27.23;22.27
39613;BME280;25303;48.896;13.342;2023-06-04T10:59:13;93023.78;;;26.84;21.56
39613;BME280;25303;48.896;13.342;2023-06-04T11:02:04;93021.75;;;26.92;22.29
39613;BME280;25303;48.896;13.342;2023-06-04T11:04:58;93027.84;;;26.97;21.56
39613;BME280;25303;48.896;13.342;2023-06-04T11:07:44;93022.41;;;27.14;22.08
39613;BME280;25303;48.896;13.342;2023-06-04T11:10:33;93021.63;;;27.62;22.52
39613;BME280;25303;48.896;13.342;2023-06-04T11:13:23;93019.38;;;27.97;21.76
39613;BME280;25303;48.896;13.342;2023-06-04T11:16:14;93022.00;;;27.92;20.80
39613;BME280;25303;48.896;13.342;2023-06-04T11:18:59;93024.63;;;27.86;21.65
39613;BME280;25303;48.896;13.342;2023-06-04T11:21:44;93016.25;;;28.10;21.53
39613;BME280;25303;48.896;13.342;2023-06-04T11:24:27;93018.66;;;28.32;21.63
39613;BME280;25303;48.896;13.342;2023-06-04T11:27:12;93023.41;;;28.15;20.67
39613;BME280;25303;48.896;13.342;2023-06-04T11:30:09;93015.69;;;28.08;21.10
39613;BME280;25303;48.896;13.342;2023-06-04T11:33:00;93021.47;;;27.95;20.71
39613;BME280;25303;48.896;13.342;2023-06-04T11:35:43;93019.09;;;27.98;20.63
39613;BME280;25303;48.896;13.342;2023-06-04T11:38:26;93020.63;;;27.73;21.00
39613;BME280;25303;48.896;13.342;2023-06-04T11:41:09;93017.31;;;28.25;20.99
39613;BME280;25303;48.896;13.342;2023-06-04T11:43:53;93014.69;;;28.25;20.71
39613;BME280;25303;48.896;13.342;2023-06-04T11:46:40;93012.59;;;28.42;20.42
39613;BME280;25303;48.896;13.342;2023-06-04T11:49:23;93004.69;;;28.73;20.29
39613;BME280;25303;48.896;13.342;2023-06-04T11:52:07;93006.50;;;28.73;20.57
39613;BME280;25303;48.896;13.342;2023-06-04T11:54:51;93002.50;;;28.29;20.95
39613;BME280;25303;48.896;13.342;2023-06-04T11:57:34;93001.38;;;28.09;20.76
39613;BME280;25303;48.896;13.342;2023-06-04T12:00:19;93005.09;;;27.98;20.24
39613;BME280;25303;48.896;13.342;2023-06-04T12:03:03;93000.63;;;28.14;20.92
39613;BME280;25303;48.896;13.342;2023-06-04T12:05:46;93007.59;;;28.46;20.90
39613;BME280;25303;48.896;13.342;2023-06-04T12:08:29;93006.00;;;28.81;20.37
39613;BME280;25303;48.896;13.342;2023-06-04T12:11:25;93014.47;;;29.04;19.63
39613;BME280;25303;48.896;13.342;2023-06-04T12:14:15;93003.84;;;29.04;20.44
39613;BME280;25303;48.896;13.342;2023-06-04T12:17:01;93004.63;;;29.20;20.08
39613;BME280;25303;48.896;13.342;2023-06-04T12:19:46;93008.00;;;29.46;20.49
39613;BME280;25303;48.896;13.342;2023-06-04T12:22:30;92998.31;;;29.86;20.74
39613;BME280;25303;48.896;13.342;2023-06-04T12:25:23;93002.91;;;30.26;19.56
39613;BME280;25303;48.896;13.342;2023-06-04T12:28:17;93008.81;;;30.12;18.64
39613;BME280;25303;48.896;13.342;2023-06-04T12:31:00;93003.56;;;30.02;19.36
39613;BME280;25303;48.896;13.342;2023-06-04T12:33:45;92998.56;;;29.90;18.89
39613;BME280;25303;48.896;13.342;2023-06-04T12:36:28;92999.88;;;29.98;19.37
39613;BME280;25303;48.896;13.342;2023-06-04T12:39:11;92993.34;;;30.25;20.05
39613;BME280;25303;48.896;13.342;2023-06-04T12:41:54;92989.63;;;30.66;19.52
39613;BME280;25303;48.896;13.342;2023-06-04T12:44:38;92980.72;;;30.46;18.73
39613;BME280;25303;48.896;13.342;2023-06-04T12:47:21;92983.31;;;30.56;18.98
39613;BME280;25303;48.896;13.342;2023-06-04T12:50:07;92980.28;;;30.73;19.08
39613;BME280;25303;48.896;13.342;2023-06-04T12:52:50;92978.81;;;30.52;18.12
39613;BME280;25303;48.896;13.342;2023-06-04T12:55:32;92980.31;;;30.28;18.80
39613;BME280;25303;48.896;13.342;2023-06-04T12:58:16;92976.97;;;30.52;19.14
39613;BME280;25303;48.896;13.342;2023-06-04T13:01:00;92979.13;;;30.80;18.21
39613;BME280;25303;48.896;13.342;2023-06-04T13:03:42;92981.59;;;30.36;18.42
39613;BME280;25303;48.896;13.342;2023-06-04T13:06:27;92986.38;;;30.34;18.02
39613;BME280;25303;48.896;13.342;2023-06-04T13:09:10;92981.34;;;30.33;17.66
39613;BME280;25303;48.896;13.342;2023-06-04T13:11:53;92974.03;;;30.19;17.58
39613;BME280;25303;48.896;13.342;2023-06-04T13:14:36;92979.13;;;30.10;18.64
39613;BME280;25303;48.896;13.342;2023-06-04T13:17:19;92982.53;;;30.51;18.61
39613;BME280;25303;48.896;13.342;2023-06-04T13:20:04;92974.59;;;30.45;18.52
39613;BME280;25303;48.896;13.342;2023-06-04T13:22:49;92980.34;;;30.63;18.20
39613;BME280;25303;48.896;13.342;2023-06-04T13:25:32;92979.91;;;30.11;17.87
39613;BME280;25303;48.896;13.342;2023-06-04T13:28:15;92979.72;;;29.92;17.91
39613;BME280;25303;48.896;13.342;2023-06-04T13:30:59;92973.94;;;29.79;18.53
39613;BME280;25303;48.896;13.342;2023-06-04T13:33:42;92963.00;;;29.96;18.33
39613;BME280;25303;48.896;13.342;2023-06-04T13:36:25;92962.16;;;30.06;17.61
39613;BME280;25303;48.896;13.342;2023-06-04T13:39:09;92966.97;;;29.99;17.71
39613;BME280;25303;48.896;13.342;2023-06-04T13:41:52;92965.09;;;29.99;18.26
39613;BME280;25303;48.896;13.342;2023-06-04T13:44:35;92961.59;;;30.09;18.31
39613;BME280;25303;48.896;13.342;2023-06-04T13:47:18;92957.03;;;30.15;18.02
39613;BME280;25303;48.896;13.342;2023-06-04T13:50:02;92957.69;;;30.36;18.60
39613;BME280;25303;48.896;13.342;2023-06-04T13:52:46;92949.31;;;30.53;18.60
39613;BME280;25303;48.896;13.342;2023-06-04T13:55:30;92962.34;;;30.15;18.58
39613;BME280;25303;48.896;13.342;2023-06-04T13:58:13;92956.94;;;29.80;19.04
39613;BME280;25303;48.896;13.342;2023-06-04T14:00:57;92963.75;;;29.41;19.02
39613;BME280;25303;48.896;13.342;2023-06-04T14:03:40;92965.69;;;29.00;19.30
39613;BME280;25303;48.896;13.342;2023-06-04T14:06:23;92967.06;;;28.76;19.46
39613;BME280;25303;48.896;13.342;2023-06-04T14:09:06;92961.75;;;28.66;19.42
39613;BME280;25303;48.896;13.342;2023-06-04T14:11:52;92963.09;;;28.58;20.28
39613;BME280;25303;48.896;13.342;2023-06-04T14:14:36;92967.31;;;28.90;20.25
39613;BME280;25303;48.896;13.342;2023-06-04T14:17:19;92962.22;;;29.04;20.41
39613;BME280;25303;48.896;13.342;2023-06-04T14:20:02;92959.63;;;28.89;19.71